Time;durP1;ratioP1;P1;durP2;ratioP2;P2;SDS_P1;SDS_P2;PMS_P1;PMS_P2;Temp;Humidity;BMP_temperature;BMP_pressure;BME280_temperature;BME280_humidity;BME280_pressure;Samples;Min_cycle;Max_cycle;Signal;HPM_P1;HPM_P2
2021/09/23 00:00:51;;;;;;;40.73;31.20;;;11.70;99.90;;;;;;4347577;33;20192;-64
2021/09/23 00:06:22;;;;;;;41.17;31.57;;;11.60;99.90;;;;;;4347818;33;20222;-63
2021/09/23 00:08:51;;;;;;;41.33;32.23;;;11.60;99.90;;;;;;4348551;33;20176;-63
2021/09/23 00:11:18;;;;;;;41.10;31.80;;;11.60;99.90;;;;;;4347893;33;20203;-63
2021/09/23 00:13:45;;;;;;;42.03;32.00;;;11.50;99.90;;;;;;4339142;33;20471;-63
2021/09/23 00:16:12;;;;;;;35.90;30.07;;;11.50;99.90;;;;;;4342852;33;20175;-63
2021/09/23 00:18:41;;;;;;;40.30;29.57;;;11.40;99.90;;;;;;4347559;33;20145;-66
2021/09/23 00:21:08;;;;;;;37.27;30.33;;;11.50;99.90;;;;;;4348616;33;20167;-63
2021/09/23 00:23:35;;;;;;;41.30;31.30;;;11.50;99.90;;;;;;4344096;33;20160;-62
2021/09/23 00:26:01;;;;;;;41.20;31.57;;;11.50;99.90;;;;;;4334629;33;20141;-65
2021/09/23 00:28:29;;;;;;;37.90;30.03;;;11.50;99.90;;;;;;4341706;33;20145;-64
2021/09/23 00:30:55;;;;;;;37.10;31.27;;;11.40;99.90;;;;;;4347876;33;20191;-63
2021/09/23 00:33:22;;;;;;;39.73;30.53;;;11.40;99.90;;;;;;4347783;33;20141;-62
2021/09/23 00:35:51;;;;;;;36.00;30.23;;;11.40;99.90;;;;;;4348467;33;20566;-63
2021/09/23 00:38:18;;;;;;;41.70;30.53;;;11.40;99.90;;;;;;4347801;33;20137;-62
2021/09/23 00:40:44;;;;;;;39.37;30.47;;;11.40;99.90;;;;;;4348953;33;20145;-63
2021/09/23 00:43:12;;;;;;;41.80;31.93;;;11.30;99.90;;;;;;4335659;33;20162;-63
2021/09/23 00:45:39;;;;;;;38.60;32.80;;;11.30;99.90;;;;;;4330332;33;20161;-63
2021/09/23 00:48:06;;;;;;;38.80;30.23;;;11.30;99.90;;;;;;4334566;33;20145;-64
2021/09/23 00:50:33;;;;;;;39.20;29.50;;;11.30;99.90;;;;;;4247236;33;2864096;-63
2021/09/23 00:53:02;;;;;;;37.23;31.07;;;11.30;99.90;;;;;;4332575;33;20157;-64
2021/09/23 00:55:29;;;;;;;44.33;30.97;;;11.30;99.90;;;;;;4346611;33;20218;-63
2021/09/23 00:57:59;;;;;;;37.07;30.73;;;11.30;99.90;;;;;;4345979;33;20324;-62
2021/09/23 01:00:26;;;;;;;37.80;30.53;;;11.30;99.90;;;;;;4345618;33;20179;-62
2021/09/23 01:02:53;;;;;;;40.63;32.00;;;11.30;99.90;;;;;;4332506;33;20325;-63
2021/09/23 01:05:20;;;;;;;38.87;32.03;;;11.30;99.90;;;;;;4326090;33;20149;-62
2021/09/23 01:07:49;;;;;;;39.67;30.13;;;11.30;99.90;;;;;;4320410;33;20555;-63
2021/09/23 01:10:19;;;;;;;37.07;30.13;;;11.30;99.90;;;;;;4347337;33;20156;-63
2021/09/23 01:12:50;;;;;;;35.73;28.50;;;11.30;99.90;;;;;;4341488;33;20146;-63
2021/09/23 01:15:18;;;;;;;35.30;28.43;;;11.30;99.90;;;;;;4337975;33;20149;-65
2021/09/23 01:17:48;;;;;;;34.47;30.17;;;11.20;99.90;;;;;;4347437;33;20236;-63
2021/09/23 01:20:16;;;;;;;36.10;29.60;;;11.20;99.90;;;;;;4318247;33;20181;-63
2021/09/23 01:22:45;;;;;;;35.50;29.17;;;11.20;99.90;;;;;;4317790;33;20159;-63
2021/09/23 01:25:14;;;;;;;38.33;31.13;;;11.20;99.90;;;;;;4331529;33;20180;-63
2021/09/23 01:27:41;;;;;;;35.03;28.50;;;11.20;99.90;;;;;;4338546;33;20180;-63
2021/09/23 01:30:09;;;;;;;37.63;30.53;;;11.20;99.90;;;;;;4337191;33;20258;-63
2021/09/23 01:32:36;;;;;;;39.57;30.30;;;11.20;99.90;;;;;;4341030;33;20489;-63
2021/09/23 01:35:07;;;;;;;44.07;31.43;;;11.20;99.90;;;;;;4346821;33;20145;-63
2021/09/23 01:37:34;;;;;;;40.70;30.83;;;11.20;99.90;;;;;;4345245;33;20145;-63
2021/09/23 01:40:02;;;;;;;38.07;30.77;;;11.20;99.90;;;;;;4345269;33;20153;-66
2021/09/23 01:42:29;;;;;;;42.17;30.43;;;11.20;99.90;;;;;;4346999;33;20172;-62
2021/09/23 01:44:56;;;;;;;41.30;30.80;;;11.30;99.90;;;;;;4345605;33;20473;-63
2021/09/23 01:47:23;;;;;;;36.73;29.27;;;11.30;99.90;;;;;;4336043;33;20517;-63
2021/09/23 01:49:50;;;;;;;40.30;30.53;;;11.20;99.90;;;;;;4346171;33;20582;-63
2021/09/23 01:52:17;;;;;;;36.37;28.80;;;11.30;99.90;;;;;;4345897;33;20161;-63
2021/09/23 01:54:44;;;;;;;37.80;28.90;;;11.30;99.90;;;;;;4345256;33;20318;-63
2021/09/23 01:57:12;;;;;;;38.80;28.37;;;11.40;99.90;;;;;;4346042;33;20144;-63
2021/09/23 01:59:39;;;;;;;36.37;29.20;;;11.40;99.90;;;;;;4346406;33;20141;-63
2021/09/23 02:02:06;;;;;;;35.03;30.00;;;11.40;99.90;;;;;;4335030;33;20187;-63
2021/09/23 02:04:33;;;;;;;39.47;27.97;;;11.40;99.90;;;;;;4332133;33;20146;-63
2021/09/23 02:07:02;;;;;;;37.40;28.87;;;11.50;99.90;;;;;;4338876;33;20146;-64
2021/09/23 02:09:35;;;;;;;36.17;29.47;;;11.50;99.90;;;;;;4338554;33;20181;-63
2021/09/23 02:12:11;;;;;;;38.20;29.90;;;11.60;99.90;;;;;;4331751;33;20598;-63
2021/09/23 02:14:41;;;;;;;45.47;31.30;;;11.50;99.90;;;;;;4331499;33;20157;-63
2021/09/23 02:17:11;;;;;;;32.30;26.60;;;11.50;99.90;;;;;;4333297;33;20156;-64
2021/09/23 02:19:47;;;;;;;42.23;28.13;;;11.50;99.90;;;;;;4331331;33;20146;-65
2021/09/23 02:22:14;;;;;;;36.93;28.70;;;11.60;99.90;;;;;;4342381;33;20752;-63
2021/09/23 02:24:41;;;;;;;41.70;30.97;;;11.50;99.90;;;;;;4346216;33;20148;-63
2021/09/23 02:27:08;;;;;;;39.03;28.70;;;11.50;99.90;;;;;;4333487;33;20179;-65
2021/09/23 02:29:36;;;;;;;36.30;29.47;;;11.50;99.90;;;;;;4331404;33;20141;-63
2021/09/23 02:32:05;;;;;;;37.87;30.90;;;11.50;99.90;;;;;;4343560;33;20153;-63
2021/09/23 02:34:44;;;;;;;41.30;30.47;;;11.50;99.90;;;;;;4346017;33;20133;-63
2021/09/23 02:37:11;;;;;;;34.73;27.83;;;11.50;99.90;;;;;;4332466;33;20195;-63
2021/09/23 02:39:38;;;;;;;33.67;29.47;;;11.50;99.90;;;;;;4332702;33;20168;-64
2021/09/23 02:42:06;;;;;;;39.10;31.63;;;11.50;99.90;;;;;;4331504;33;20176;-63
2021/09/23 02:44:33;;;;;;;39.97;29.30;;;11.40;99.90;;;;;;4331025;33;20153;-64
2021/09/23 02:47:00;;;;;;;40.03;30.20;;;11.40;99.90;;;;;;4332707;33;20145;-64
2021/09/23 02:49:28;;;;;;;39.20;29.87;;;11.40;99.90;;;;;;4331305;33;20140;-64
2021/09/23 02:51:56;;;;;;;39.43;27.73;;;11.40;99.90;;;;;;4330760;33;20624;-64
2021/09/23 02:54:27;;;;;;;46.07;32.33;;;11.40;99.90;;;;;;4331025;33;20148;-65
2021/09/23 02:56:54;;;;;;;41.70;29.73;;;11.40;99.90;;;;;;4331256;33;20195;-64
2021/09/23 02:59:30;;;;;;;38.17;29.27;;;11.40;99.90;;;;;;4331359;33;20160;-64
2021/09/23 03:01:57;;;;;;;40.67;30.70;;;11.40;99.90;;;;;;4331775;33;20133;-63
2021/09/23 03:04:24;;;;;;;38.13;29.93;;;11.30;99.90;;;;;;4330983;33;20168;-62
2021/09/23 03:06:52;;;;;;;40.03;30.40;;;11.30;99.90;;;;;;4331058;33;20137;-62
2021/09/23 03:09:20;;;;;;;41.77;31.43;;;11.30;99.90;;;;;;4332099;33;20152;-63
2021/09/23 03:11:47;;;;;;;42.93;31.90;;;11.20;99.90;;;;;;4341774;33;20188;-62
2021/09/23 03:14:13;;;;;;;40.93;28.93;;;11.20;99.90;;;;;;4347725;33;20453;-64
2021/09/23 03:16:41;;;;;;;38.60;28.47;;;11.20;99.90;;;;;;4341868;33;20145;-63
2021/09/23 03:19:08;;;;;;;38.83;28.03;;;11.10;99.90;;;;;;4348896;33;20188;-63
2021/09/23 03:21:44;;;;;;;39.83;31.27;;;11.10;99.90;;;;;;4350139;33;20149;-64
2021/09/23 03:24:14;;;;;;;37.37;29.30;;;11.10;99.90;;;;;;4350691;33;20164;-64
2021/09/23 03:26:45;;;;;;;42.40;31.03;;;11.10;99.90;;;;;;4342763;33;20145;-64
2021/09/23 03:29:12;;;;;;;38.53;29.30;;;11.10;99.90;;;;;;4350749;33;20171;-63
2021/09/23 03:31:39;;;;;;;41.10;29.90;;;11.10;99.90;;;;;;4338642;33;20204;-62
2021/09/23 03:34:07;;;;;;;37.47;31.87;;;11.10;99.90;;;;;;4339563;33;20222;-64
2021/09/23 03:36:34;;;;;;;41.73;31.87;;;11.10;99.90;;;;;;4347759;33;20172;-63
2021/09/23 03:39:01;;;;;;;38.70;31.60;;;11.00;99.90;;;;;;4350517;33;20157;-63
2021/09/23 03:41:32;;;;;;;38.23;29.97;;;11.00;99.90;;;;;;4337286;33;20167;-63
2021/09/23 03:44:00;;;;;;;45.03;31.93;;;11.00;99.90;;;;;;4345403;33;20149;-63
2021/09/23 03:46:27;;;;;;;39.10;30.33;;;11.00;99.90;;;;;;4342174;33;20218;-65
2021/09/23 03:48:53;;;;;;;41.97;29.63;;;11.00;99.90;;;;;;4338724;33;20142;-64
2021/09/23 03:51:20;;;;;;;37.40;30.57;;;11.00;99.90;;;;;;4337262;33;20146;-63
2021/09/23 03:53:55;;;;;;;38.30;30.77;;;10.90;99.90;;;;;;4336946;33;20600;-63
2021/09/23 03:56:22;;;;;;;41.67;30.80;;;11.00;99.90;;;;;;4335969;33;20152;-63
2021/09/23 03:58:50;;;;;;;37.23;29.70;;;11.00;99.90;;;;;;4341492;33;20148;-63
2021/09/23 04:01:17;;;;;;;44.83;33.00;;;11.00;99.90;;;;;;4350127;33;20196;-63
2021/09/23 04:03:45;;;;;;;41.10;30.60;;;11.00;99.90;;;;;;4350078;33;20142;-62
2021/09/23 04:06:12;;;;;;;42.77;33.70;;;11.00;99.90;;;;;;4348752;33;20493;-63
2021/09/23 04:08:39;;;;;;;40.40;31.80;;;11.00;99.90;;;;;;4350022;33;20153;-63
2021/09/23 04:11:06;;;;;;;44.53;34.07;;;11.10;99.90;;;;;;4351381;33;20227;-63
2021/09/23 04:13:33;;;;;;;48.60;33.83;;;11.10;99.90;;;;;;4350094;33;20167;-62
2021/09/23 04:16:13;;;;;;;46.27;36.23;;;11.20;99.90;;;;;;4349921;33;20141;-63
2021/09/23 04:18:42;;;;;;;46.30;34.53;;;11.20;99.90;;;;;;4342934;33;20153;-63
2021/09/23 04:21:09;;;;;;;44.27;34.10;;;11.30;99.90;;;;;;4343761;33;20150;-62
2021/09/23 04:23:36;;;;;;;44.90;36.43;;;11.20;99.90;;;;;;4335873;33;20153;-63
2021/09/23 04:26:03;;;;;;;45.30;37.00;;;11.20;99.90;;;;;;4337148;33;20153;-65
2021/09/23 04:28:30;;;;;;;47.50;36.60;;;11.30;99.90;;;;;;4346894;33;20189;-63
2021/09/23 04:30:57;;;;;;;48.03;38.67;;;11.30;99.90;;;;;;4349285;33;20181;-62
2021/09/23 04:33:29;;;;;;;44.40;35.73;;;11.30;99.90;;;;;;4348310;33;20149;-62
2021/09/23 04:35:56;;;;;;;45.23;36.40;;;11.30;99.90;;;;;;4346893;33;20172;-64
2021/09/23 04:38:23;;;;;;;46.47;36.33;;;11.30;99.90;;;;;;4347604;33;20216;-65
2021/09/23 04:40:50;;;;;;;48.00;37.10;;;11.40;99.90;;;;;;4346996;33;20521;-65
2021/09/23 04:43:17;;;;;;;47.13;35.53;;;11.40;99.90;;;;;;4348526;33;20176;-63
2021/09/23 04:45:47;;;;;;;47.30;36.90;;;11.40;99.90;;;;;;4346668;33;20156;-62
2021/09/23 04:48:14;;;;;;;49.57;39.03;;;11.40;99.90;;;;;;4346880;33;20152;-63
2021/09/23 04:50:42;;;;;;;50.30;39.13;;;11.40;99.90;;;;;;4346832;33;20137;-63
2021/09/23 04:53:09;;;;;;;63.33;43.07;;;11.40;99.90;;;;;;4349170;33;20145;-65
2021/09/23 04:55:36;;;;;;;56.87;41.43;;;11.40;99.90;;;;;;4346962;33;20141;-63
2021/09/23 04:58:10;;;;;;;55.13;43.83;;;11.40;99.90;;;;;;4348826;33;20145;-62
2021/09/23 05:00:37;;;;;;;59.70;41.70;;;11.40;99.90;;;;;;4347638;33;20561;-64
2021/09/23 05:03:04;;;;;;;57.77;43.03;;;11.40;99.90;;;;;;4347431;33;20141;-65
2021/09/23 05:05:31;;;;;;;53.57;42.80;;;11.40;99.90;;;;;;4346736;33;20145;-65
2021/09/23 05:08:00;;;;;;;60.80;43.57;;;11.50;99.90;;;;;;4346974;33;20157;-63
2021/09/23 05:10:49;;;;;;;67.73;45.67;;;11.50;99.90;;;;;;4345815;33;20204;-62
2021/09/23 05:13:25;;;;;;;59.30;44.03;;;11.50;99.90;;;;;;4347113;33;20164;-63
2021/09/23 05:15:52;;;;;;;61.07;42.27;;;11.50;99.90;;;;;;4345526;33;20206;-67
2021/09/23 05:18:21;;;;;;;61.00;46.50;;;11.60;99.90;;;;;;4346252;33;20145;-66
2021/09/23 05:20:51;;;;;;;59.60;44.23;;;11.50;99.90;;;;;;4346074;33;20204;-64
2021/09/23 05:23:19;;;;;;;60.70;44.37;;;11.60;99.90;;;;;;4347752;33;20172;-66
2021/09/23 05:25:51;;;;;;;58.97;44.47;;;11.60;99.90;;;;;;4345213;33;20155;-65
2021/09/23 05:28:21;;;;;;;57.90;42.37;;;11.60;99.90;;;;;;4343934;33;20137;-64
2021/09/23 05:30:56;;;;;;;66.70;47.70;;;11.60;99.90;;;;;;4345223;33;20629;-67
2021/09/23 05:33:40;;;;;;;61.80;43.73;;;11.60;99.90;;;;;;4344795;33;20561;-64
2021/09/23 05:36:07;;;;;;;58.60;43.30;;;11.60;99.90;;;;;;4346432;32;20276;-64
2021/09/23 05:38:58;;;;;;;61.93;43.87;;;11.60;99.90;;;;;;4347237;32;20141;-64
2021/09/23 05:41:27;;;;;;;63.27;48.13;;;11.60;99.90;;;;;;4345718;32;20149;-64
2021/09/23 05:44:02;;;;;;;63.80;44.83;;;11.70;99.90;;;;;;4344711;33;20226;-64
2021/09/23 05:50:00;;;;;;;58.40;43.83;;;11.70;99.90;;;;;;4344508;32;20225;-67
2021/09/23 05:52:27;;;;;;;59.63;45.30;;;11.80;99.90;;;;;;4343899;33;20291;-64
2021/09/23 05:54:55;;;;;;;61.70;44.73;;;11.80;99.90;;;;;;4344113;33;20194;-63
2021/09/23 05:57:24;;;;;;;61.93;47.67;;;11.90;99.90;;;;;;4343860;33;20268;-64
2021/09/23 05:59:51;;;;;;;68.10;48.00;;;12.00;99.90;;;;;;4342607;33;20643;-66
2021/09/23 06:02:23;;;;;;;65.73;49.00;;;12.00;99.90;;;;;;4344362;33;20214;-66
2021/09/23 06:04:55;;;;;;;71.37;44.73;;;12.10;99.90;;;;;;4343800;33;20596;-67
2021/09/23 06:07:25;;;;;;;63.97;48.03;;;12.20;99.90;;;;;;4344027;33;20152;-67
2021/09/23 06:09:55;;;;;;;66.83;46.83;;;12.20;99.90;;;;;;4344050;33;20256;-63
2021/09/23 06:12:31;;;;;;;66.90;48.37;;;12.40;99.90;;;;;;4343665;33;20559;-66
2021/09/23 06:15:01;;;;;;;65.87;45.90;;;12.50;99.90;;;;;;4343173;33;20167;-66
2021/09/23 06:17:31;;;;;;;72.13;51.17;;;12.70;99.90;;;;;;4346617;32;20877;-64
2021/09/23 06:19:58;;;;;;;61.23;47.00;;;12.80;99.90;;;;;;4342177;33;20200;-66
2021/09/23 06:22:25;;;;;;;62.60;46.17;;;12.90;99.90;;;;;;4343209;33;20299;-63
2021/09/23 06:24:52;;;;;;;63.67;46.07;;;13.10;99.90;;;;;;4342278;32;20549;-66
2021/09/23 06:27:20;;;;;;;60.03;44.67;;;13.30;99.90;;;;;;4344475;33;20173;-62
2021/09/23 06:29:47;;;;;;;66.00;46.03;;;13.50;99.90;;;;;;4349639;33;20194;-62
2021/09/23 06:32:14;;;;;;;62.03;45.97;;;13.70;99.90;;;;;;4345005;32;20220;-64
2021/09/23 06:34:41;;;;;;;63.93;45.80;;;13.80;99.90;;;;;;4345929;33;20157;-63
2021/09/23 06:37:08;;;;;;;61.97;45.53;;;14.00;99.90;;;;;;4345746;33;20152;-64
2021/09/23 06:39:38;;;;;;;59.00;45.50;;;14.10;99.90;;;;;;4357777;32;20581;-65
2021/09/23 06:42:05;;;;;;;60.40;43.43;;;14.20;99.90;;;;;;4354573;32;20179;-65
2021/09/23 06:44:33;;;;;;;56.23;43.33;;;14.30;99.90;;;;;;4358883;33;20169;-65
2021/09/23 06:47:00;;;;;;;65.10;45.50;;;14.30;99.90;;;;;;4339354;33;20147;-65
2021/09/23 06:49:27;;;;;;;60.73;45.80;;;14.30;99.90;;;;;;4352282;32;20154;-66
2021/09/23 06:51:54;;;;;;;64.47;47.77;;;14.30;99.90;;;;;;4331278;33;20160;-65
2021/09/23 06:54:20;;;;;;;67.53;47.07;;;14.30;99.90;;;;;;4356722;33;20164;-64
2021/09/23 06:56:47;;;;;;;59.57;45.43;;;14.30;99.90;;;;;;4352345;32;20219;-64
2021/09/23 06:59:14;;;;;;;59.47;45.63;;;14.40;99.90;;;;;;4339300;33;20718;-66
2021/09/23 07:01:42;;;;;;;63.93;45.17;;;14.30;99.90;;;;;;4349211;33;20228;-63
2021/09/23 07:04:09;;;;;;;54.87;45.43;;;14.40;99.90;;;;;;4346322;33;20149;-66
2021/09/23 07:06:36;;;;;;;67.73;48.27;;;14.40;99.90;;;;;;4346237;33;20148;-64
2021/09/23 07:09:04;;;;;;;63.37;46.13;;;14.50;99.90;;;;;;4349304;33;20163;-64
2021/09/23 07:11:31;;;;;;;66.10;46.80;;;14.50;99.90;;;;;;4359077;33;20175;-65
2021/09/23 07:13:58;;;;;;;68.10;47.83;;;14.60;99.90;;;;;;4359120;33;20236;-63
2021/09/23 07:16:25;;;;;;;65.37;49.30;;;14.80;99.90;;;;;;4344828;33;20187;-63
2021/09/23 07:18:56;;;;;;;56.53;45.43;;;15.10;99.90;;;;;;4344489;33;20174;-64
2021/09/23 07:21:22;;;;;;;60.27;44.87;;;15.40;99.90;;;;;;4352883;33;20215;-63
2021/09/23 07:23:55;;;;;;;55.97;41.50;;;15.50;99.90;;;;;;4345235;33;20151;-63
2021/09/23 07:26:22;;;;;;;58.90;43.27;;;15.80;99.90;;;;;;4356378;33;20141;-64
2021/09/23 07:28:49;;;;;;;62.77;45.77;;;16.00;99.90;;;;;;4360208;33;20133;-65
2021/09/23 07:31:16;;;;;;;57.37;42.77;;;16.10;99.90;;;;;;4358119;33;20168;-64
2021/09/23 07:33:44;;;;;;;54.57;43.50;;;16.00;99.90;;;;;;4356990;33;20170;-63
2021/09/23 07:36:13;;;;;;;57.93;41.60;;;16.00;99.90;;;;;;4359971;33;20152;-65
2021/09/23 07:38:41;;;;;;;64.80;45.10;;;16.00;99.90;;;;;;4349292;33;20145;-64
2021/09/23 07:41:09;;;;;;;59.77;42.80;;;16.10;99.90;;;;;;4348153;33;20204;-65
2021/09/23 07:43:36;;;;;;;58.47;43.50;;;16.20;99.90;;;;;;4347131;33;20183;-65
2021/09/23 07:46:03;;;;;;;54.93;42.80;;;16.30;99.90;;;;;;4346447;33;20183;-64
2021/09/23 07:48:30;;;;;;;58.10;42.30;;;16.40;99.90;;;;;;4345640;33;20588;-66
2021/09/23 07:51:00;;;;;;;54.57;42.97;;;16.60;99.90;;;;;;4350541;33;20142;-66
2021/09/23 07:53:30;;;;;;;60.10;43.27;;;16.80;99.90;;;;;;4345236;33;20153;-66
2021/09/23 07:55:57;;;;;;;54.53;43.23;;;16.70;99.90;;;;;;4345448;33;20137;-65
2021/09/23 07:58:24;;;;;;;58.13;43.07;;;16.80;99.90;;;;;;4345316;33;20169;-64
2021/09/23 08:00:50;;;;;;;57.20;42.53;;;17.00;99.90;;;;;;4347244;33;20165;-67
2021/09/23 08:03:17;;;;;;;49.47;39.13;;;17.20;99.90;;;;;;4350084;32;20145;-67
2021/09/23 08:05:44;;;;;;;52.10;39.57;;;17.30;99.90;;;;;;4348103;33;20152;-64
2021/09/23 08:08:11;;;;;;;54.10;40.17;;;17.50;99.90;;;;;;4346233;33;20224;-67
2021/09/23 08:11:00;;;;;;;47.33;37.93;;;17.60;99.90;;;;;;4338977;32;20242;-64
2021/09/23 08:13:27;;;;;;;40.80;35.37;;;17.70;99.90;;;;;;4341705;33;20145;-63
2021/09/23 08:15:54;;;;;;;51.40;36.03;;;17.70;99.90;;;;;;4342654;33;20250;-62
2021/09/23 08:18:38;;;;;;;46.27;33.83;;;17.70;99.90;;;;;;4340446;32;20148;-64
2021/09/23 08:21:05;;;;;;;37.90;30.57;;;17.80;99.90;;;;;;4351467;33;20595;-63
2021/09/23 08:23:35;;;;;;;42.43;34.50;;;18.20;99.90;;;;;;4351862;32;20175;-62
2021/09/23 08:26:05;;;;;;;42.57;33.97;;;18.70;99.90;;;;;;4351114;33;20168;-62
2021/09/23 08:28:35;;;;;;;42.03;31.80;;;18.90;99.90;;;;;;4351169;33;20153;-62
2021/09/23 08:31:19;;;;;;;37.30;31.73;;;18.70;99.90;;;;;;4350844;32;20207;-61
2021/09/23 08:33:49;;;;;;;40.70;33.43;;;18.60;99.90;;;;;;4356073;33;20199;-63
2021/09/23 08:36:24;;;;;;;41.60;31.93;;;18.50;99.90;;;;;;4356164;33;20140;-62
2021/09/23 08:38:53;;;;;;;42.43;31.83;;;18.40;99.90;;;;;;4347360;33;20168;-63
2021/09/23 08:41:22;;;;;;;39.67;32.73;;;18.10;99.90;;;;;;4347362;33;20153;-62
2021/09/23 08:43:54;;;;;;;40.30;30.63;;;17.90;99.90;;;;;;4347575;33;20203;-62
2021/09/23 08:46:31;;;;;;;38.93;31.13;;;17.90;99.90;;;;;;4349139;32;20573;-63
2021/09/23 08:49:19;;;;;;;35.63;29.53;;;18.00;99.90;;;;;;4347035;33;20144;-63
2021/09/23 08:51:54;;;;;;;37.80;28.97;;;18.20;99.90;;;;;;4346048;33;20145;-63
2021/09/23 08:54:34;;;;;;;28.97;24.90;;;18.00;99.90;;;;;;4347950;33;20144;-63
2021/09/23 08:57:12;;;;;;;31.03;26.57;;;17.80;99.90;;;;;;4356528;32;20156;-62
2021/09/23 08:59:43;;;;;;;27.87;23.67;;;17.60;99.90;;;;;;4362429;32;20582;-63
2021/09/23 09:02:37;;;;;;;30.67;24.70;;;17.40;99.90;;;;;;4362061;33;20171;-63
2021/09/23 09:05:20;;;;;;;27.00;23.57;;;17.30;99.90;;;;;;4357148;32;20488;-63
2021/09/23 09:07:50;;;;;;;29.63;24.10;;;17.20;99.90;;;;;;4351843;32;20187;-63
2021/09/23 09:10:23;;;;;;;28.77;23.93;;;17.20;99.90;;;;;;4347457;33;20158;-63
2021/09/23 09:12:55;;;;;;;28.17;24.60;;;17.30;99.90;;;;;;4346973;33;20563;-62
2021/09/23 09:15:39;;;;;;;25.27;22.60;;;17.40;99.90;;;;;;4359858;32;20200;-62
2021/09/23 09:18:17;;;;;;;27.33;24.40;;;17.50;99.90;;;;;;4347265;33;20167;-63
2021/09/23 09:20:59;;;;;;;29.33;24.10;;;17.60;99.90;;;;;;4340251;33;20647;-63
2021/09/23 09:23:31;;;;;;;28.10;25.10;;;17.90;99.90;;;;;;4347289;33;20248;-63
2021/09/23 09:26:06;;;;;;;32.07;24.33;;;18.20;99.90;;;;;;4357181;33;20565;-63
2021/09/23 09:28:44;;;;;;;31.03;21.73;;;18.70;99.90;;;;;;4349143;33;20144;-63
2021/09/23 09:31:13;;;;;;;21.70;18.37;;;19.10;99.90;;;;;;4346922;33;20149;-65
2021/09/23 09:33:46;;;;;;;16.50;14.80;;;19.20;99.90;;;;;;4348502;33;20541;-63
2021/09/23 09:36:32;;;;;;;13.63;12.70;;;19.30;99.90;;;;;;4332826;33;20156;-64
2021/09/23 09:39:01;;;;;;;13.50;12.20;;;19.00;99.90;;;;;;4354777;32;20705;-64
2021/09/23 09:41:41;;;;;;;13.50;12.20;;;18.90;99.90;;;;;;4347991;32;20660;-63
2021/09/23 09:44:28;;;;;;;11.30;9.40;;;19.20;99.90;;;;;;4346703;33;20534;-63
2021/09/23 09:46:55;;;;;;;10.80;9.97;;;19.40;99.90;;;;;;4346785;33;20160;-63
2021/09/23 09:49:33;;;;;;;12.23;10.53;;;19.60;99.90;;;;;;4351535;33;20421;-64
2021/09/23 09:52:11;;;;;;;11.17;10.03;;;19.70;99.90;;;;;;4351657;33;20164;-65
2021/09/23 09:54:40;;;;;;;12.50;11.50;;;19.40;99.90;;;;;;4346220;33;20173;-63
2021/09/23 09:57:17;;;;;;;11.33;10.33;;;19.20;99.90;;;;;;4349652;32;20220;-64
2021/09/23 09:59:49;;;;;;;11.80;10.93;;;19.30;99.90;;;;;;4349965;32;20585;-65
2021/09/23 10:02:18;;;;;;;11.37;10.20;;;19.40;99.90;;;;;;4350148;33;20156;-64
2021/09/23 10:04:49;;;;;;;11.23;10.30;;;19.30;99.90;;;;;;4356567;33;20156;-63
2021/09/23 10:07:18;;;;;;;10.97;10.23;;;19.60;99.90;;;;;;4360915;32;20157;-63
2021/09/23 10:09:47;;;;;;;12.00;11.00;;;19.80;99.90;;;;;;4350565;33;20172;-63
2021/09/23 10:12:14;;;;;;;11.50;10.43;;;19.60;99.90;;;;;;4346387;33;20157;-63
2021/09/23 10:15:02;;;;;;;17.23;11.03;;;19.50;99.90;;;;;;4347759;33;20157;-63
2021/09/23 10:17:32;;;;;;;11.70;10.73;;;19.20;99.90;;;;;;4349439;33;20516;-63
2021/09/23 10:20:12;;;;;;;10.63;9.73;;;19.00;99.90;;;;;;4359726;32;20207;-64
2021/09/23 10:22:39;;;;;;;10.93;10.23;;;18.90;99.90;;;;;;4351083;32;20213;-63
2021/09/23 10:25:10;;;;;;;13.83;12.53;;;18.80;99.90;;;;;;4346384;33;20173;-63
2021/09/23 10:30:29;;;;;;;12.40;11.40;;;18.80;99.90;;;;;;4347042;33;20167;-63
2021/09/23 10:32:57;;;;;;;13.40;12.20;;;18.60;99.90;;;;;;4355628;33;20156;-64
2021/09/23 10:35:31;;;;;;;11.33;10.43;;;18.70;99.90;;;;;;4360968;32;20488;-64
2021/09/23 10:38:00;;;;;;;11.77;10.50;;;18.80;99.90;;;;;;4359125;33;20195;-64
2021/09/23 10:40:33;;;;;;;12.23;11.13;;;18.70;99.90;;;;;;4361089;32;20164;-64
2021/09/23 10:43:15;;;;;;;15.13;13.60;;;18.60;99.90;;;;;;4351203;32;20665;-64
2021/09/23 10:46:00;;;;;;;14.30;10.63;;;18.70;99.90;;;;;;4346355;33;20176;-63
2021/09/23 10:48:33;;;;;;;9.87;9.20;;;19.20;99.90;;;;;;4357554;33;20184;-65
2021/09/23 10:51:02;;;;;;;11.70;10.67;;;19.60;99.90;;;;;;4360823;33;20164;-65
2021/09/23 10:54:06;;;;;;;11.20;9.77;;;19.50;99.90;;;;;;4361015;33;20164;-65
2021/09/23 10:56:47;;;;;;;12.13;11.20;;;19.60;99.90;;;;;;4348412;33;20486;-65
2021/09/23 10:59:22;;;;;;;12.80;11.87;;;19.60;99.90;;;;;;4345817;33;20149;-63
2021/09/23 11:01:53;;;;;;;12.00;10.90;;;19.60;99.90;;;;;;4337279;33;20195;-63
2021/09/23 11:04:25;;;;;;;12.77;11.50;;;19.30;99.90;;;;;;4331259;33;20235;-64
2021/09/23 11:06:59;;;;;;;10.47;9.87;;;19.10;99.90;;;;;;4344780;33;20157;-64
2021/09/23 11:09:28;;;;;;;13.60;12.70;;;19.00;99.90;;;;;;4345404;33;20505;-65
2021/09/23 11:12:08;;;;;;;12.50;11.47;;;19.00;99.90;;;;;;4340714;33;20184;-63
2021/09/23 11:14:51;;;;;;;11.97;10.97;;;19.10;99.90;;;;;;4338201;33;20481;-66
2021/09/23 11:17:20;;;;;;;13.33;12.10;;;19.40;99.90;;;;;;4329149;33;20153;-64
2021/09/23 11:22:58;;;;;;;11.27;10.33;;;20.20;99.90;;;;;;4328111;33;20621;-66
2021/09/23 11:25:41;;;;;;;12.83;11.63;;;20.90;99.90;;;;;;4330380;33;20184;-63
2021/09/23 11:31:08;;;;;;;14.53;13.17;;;21.20;99.90;;;;;;4332780;33;20181;-66
2021/09/23 11:33:42;;;;;;;14.60;13.47;;;21.30;99.90;;;;;;4333044;33;20161;-66
2021/09/23 11:36:11;;;;;;;14.70;13.80;;;21.40;99.90;;;;;;4334077;33;20162;-64
2021/09/23 11:38:43;;;;;;;14.73;13.47;;;21.30;99.90;;;;;;4335087;33;20462;-65
2021/09/23 11:41:33;;;;;;;17.27;16.03;;;21.40;99.90;;;;;;4341521;33;20157;-64
2021/09/23 11:44:00;;;;;;;13.73;12.93;;;21.60;99.90;;;;;;4345604;33;20218;-64
2021/09/23 11:46:33;;;;;;;17.23;16.10;;;21.70;99.90;;;;;;4334270;33;20571;-65
2021/09/23 11:49:07;;;;;;;16.33;14.93;;;21.30;99.90;;;;;;4333385;33;20573;-66
2021/09/23 11:51:54;;;;;;;16.57;15.63;;;21.20;99.90;;;;;;4337315;33;20180;-65
2021/09/23 11:54:28;;;;;;;16.90;15.83;;;21.10;99.90;;;;;;4340685;33;20645;-65
2021/09/23 11:56:58;;;;;;;16.67;15.67;;;21.20;99.90;;;;;;4344642;33;20180;-66
2021/09/23 11:59:30;;;;;;;14.93;14.00;;;21.30;99.90;;;;;;4341547;33;20173;-65
2021/09/23 12:02:01;;;;;;;14.07;13.17;;;21.70;99.90;;;;;;4347712;32;20687;-65
2021/09/23 12:04:32;;;;;;;16.73;15.57;;;21.70;99.90;;;;;;4355497;32;20160;-65
2021/09/23 12:07:08;;;;;;;16.80;15.70;;;21.70;99.90;;;;;;4344307;33;20180;-65
2021/09/23 12:09:58;;;;;;;17.87;16.30;;;21.60;99.90;;;;;;4349109;32;20574;-65
2021/09/23 12:12:36;;;;;;;14.30;13.30;;;21.20;99.90;;;;;;4337568;32;20223;-66
2021/09/23 12:15:05;;;;;;;16.97;15.87;;;20.90;99.90;;;;;;4347184;33;20206;-66
2021/09/23 12:17:32;;;;;;;18.50;17.33;;;20.90;99.90;;;;;;4348221;33;20590;-65
2021/09/23 12:20:09;;;;;;;19.50;18.50;;;21.00;99.90;;;;;;4349296;33;20165;-66
2021/09/23 12:22:48;;;;;;;18.53;17.23;;;21.10;99.90;;;;;;4346584;33;20182;-66
2021/09/23 12:25:18;;;;;;;18.17;16.80;;;21.00;99.90;;;;;;4346600;33;20172;-67
2021/09/23 12:27:53;;;;;;;16.20;15.07;;;20.80;99.90;;;;;;4346914;33;20168;-66
2021/09/23 12:30:31;;;;;;;21.03;19.93;;;20.50;99.90;;;;;;4347497;33;20192;-65
2021/09/23 12:33:24;;;;;;;20.43;19.30;;;20.20;99.90;;;;;;4343372;33;20198;-65
2021/09/23 12:36:25;;;;;;;17.33;16.40;;;19.90;99.90;;;;;;4346635;33;20567;-66
2021/09/23 12:39:25;;;;;;;17.67;16.57;;;19.70;99.90;;;;;;4343504;33;20520;-66
2021/09/23 12:42:21;;;;;;;20.03;18.53;;;19.40;99.90;;;;;;4344674;33;20162;-66
2021/09/23 12:44:58;;;;;;;15.10;13.90;;;19.40;99.90;;;;;;4347701;33;20199;-65
2021/09/23 12:47:28;;;;;;;18.37;17.27;;;19.50;99.90;;;;;;4348130;33;21456;-66
2021/09/23 12:50:11;;;;;;;16.47;15.20;;;19.30;99.90;;;;;;4347866;33;20200;-67
2021/09/23 12:52:45;;;;;;;19.07;17.83;;;19.20;99.90;;;;;;4344826;33;20165;-65
2021/09/23 12:55:20;;;;;;;18.07;16.40;;;19.30;99.90;;;;;;4343634;33;20160;-66
2021/09/23 12:57:53;;;;;;;17.23;16.10;;;19.20;99.90;;;;;;4349303;33;20203;-66
2021/09/23 13:01:00;;;;;;;14.90;14.10;;;19.30;99.90;;;;;;4333355;33;20280;-65
2021/09/23 13:03:35;;;;;;;15.97;15.07;;;19.40;99.90;;;;;;4300015;33;20200;-65